createdAt,value
2018-04-24T00:00:29.557Z,100383.98
2018-04-24T00:02:56.944Z,100382.91
2018-04-24T00:05:24.342Z,100375.78
2018-04-24T00:07:51.731Z,100380.31
2018-04-24T00:10:19.139Z,100383.41
2018-04-24T00:12:46.565Z,100379.45
2018-04-24T00:15:13.967Z,100377.41
2018-04-24T00:17:41.380Z,100375.98
2018-04-24T00:20:08.755Z,100378.93
2018-04-24T00:22:36.146Z,100373.16
2018-04-24T00:25:03.532Z,100377.53
2018-04-24T00:27:30.930Z,100384.12
2018-04-24T00:29:58.326Z,100384.38
2018-04-24T00:32:25.734Z,100383.59
2018-04-24T00:34:53.139Z,100387.02
2018-04-24T00:37:20.558Z,100380.27
2018-04-24T00:39:47.986Z,100379.14
2018-04-24T00:42:15.391Z,100370.72
2018-04-24T00:44:42.787Z,100377.23
2018-04-24T00:47:10.172Z,100367.33
2018-04-24T00:49:37.603Z,100365.97
2018-04-24T00:52:05.006Z,100365.73
2018-04-24T00:54:32.415Z,100365.16
2018-04-24T00:56:59.822Z,100363.38
2018-04-24T00:59:27.203Z,100356.68
2018-04-24T01:01:54.596Z,100354.47
2018-04-24T01:04:21.996Z,100346.48
2018-04-24T01:06:49.440Z,100353.28
2018-04-24T01:09:17.022Z,100354.95
2018-04-24T01:11:44.411Z,100352.31
2018-04-24T01:14:11.800Z,100358.91
2018-04-24T01:16:39.223Z,100365.02
2018-04-24T01:19:06.659Z,100351.84
2018-04-24T01:21:34.043Z,100353.29
2018-04-24T01:24:01.439Z,100356.13
2018-04-24T01:26:28.842Z,100369.88
2018-04-24T01:28:56.274Z,100366.80
2018-04-24T01:31:23.643Z,100368.53
2018-04-24T01:33:51.116Z,100362.58
2018-04-24T01:36:18.533Z,100359.91
2018-04-24T01:38:45.920Z,100366.33
2018-04-24T01:41:13.304Z,100372.66
2018-04-24T01:43:40.699Z,100384.77
2018-04-24T01:46:08.112Z,100383.66
2018-04-24T01:48:35.516Z,100383.88
2018-04-24T01:51:02.903Z,100384.55
2018-04-24T01:53:30.323Z,100375.76
2018-04-24T01:55:57.710Z,100365.70
2018-04-24T01:58:25.117Z,100364.53
2018-04-24T02:00:52.499Z,100356.12
2018-04-24T02:03:19.895Z,100350.03
2018-04-24T02:05:47.287Z,100349.99
2018-04-24T02:08:14.694Z,100351.42
2018-04-24T02:10:42.082Z,100346.39
2018-04-24T02:13:09.478Z,100350.02
2018-04-24T02:15:36.875Z,100351.57
2018-04-24T02:18:04.267Z,100353.16
2018-04-24T02:20:31.662Z,100347.91
2018-04-24T02:22:59.120Z,100342.90
2018-04-24T02:25:26.511Z,100338.20
2018-04-24T02:27:53.902Z,100332.86
2018-04-24T02:30:21.303Z,100332.77
2018-04-24T02:32:48.711Z,100338.58
2018-04-24T02:35:16.130Z,100335.72
2018-04-24T02:37:43.532Z,100342.82
2018-04-24T02:40:10.928Z,100348.66
2018-04-24T02:42:38.329Z,100345.92
2018-04-24T02:45:05.743Z,100349.17
2018-04-24T02:47:33.186Z,100352.65
2018-04-24T02:50:00.593Z,100347.73
2018-04-24T02:52:27.973Z,100341.91
2018-04-24T02:54:55.365Z,100345.60
2018-04-24T02:57:22.759Z,100334.52
2018-04-24T02:59:50.192Z,100333.81
2018-04-24T03:02:17.595Z,100330.67
2018-04-24T03:04:44.991Z,100324.98
2018-04-24T03:07:12.400Z,100318.55
2018-04-24T03:09:39.782Z,100318.87
2018-04-24T03:12:07.195Z,100315.31
2018-04-24T03:14:34.573Z,100311.93
2018-04-24T03:17:01.967Z,100315.63
2018-04-24T03:19:29.366Z,100316.86
2018-04-24T03:21:56.750Z,100322.64
2018-04-24T03:24:24.142Z,100325.90
2018-04-24T03:26:51.546Z,100324.48
2018-04-24T03:29:18.942Z,100329.89
2018-04-24T03:31:46.334Z,100334.63
2018-04-24T03:34:13.735Z,100327.23
2018-04-24T03:36:41.129Z,100315.97
2018-04-24T03:39:08.523Z,100321.09
2018-04-24T03:41:35.915Z,100311.16
2018-04-24T03:44:03.308Z,100313.30
2018-04-24T03:46:30.703Z,100307.15
2018-04-24T03:48:58.091Z,100314.92
2018-04-24T03:51:25.483Z,100318.84
2018-04-24T03:53:52.887Z,100312.48
2018-04-24T03:56:20.271Z,100307.05
2018-04-24T03:58:47.655Z,100312.19
2018-04-24T04:01:15.053Z,100316.08
2018-04-24T04:03:42.435Z,100312.26
2018-04-24T04:06:09.833Z,100319.16
2018-04-24T04:08:37.218Z,100313.51
2018-04-24T04:11:04.609Z,100308.81
2018-04-24T04:13:32.039Z,100304.42
2018-04-24T04:15:59.886Z,100307.31
2018-04-24T04:18:38.923Z,100314.47
2018-04-24T04:21:18.242Z,100307.63
2018-04-24T04:23:57.517Z,100308.84
2018-04-24T04:26:24.927Z,100302.47
2018-04-24T04:28:52.323Z,100303.91
2018-04-24T04:31:20.572Z,100305.02
2018-04-24T04:33:47.993Z,100307.27
2018-04-24T04:36:15.406Z,100300.71
2018-04-24T04:38:42.784Z,100306.87
2018-04-24T04:41:10.180Z,100307.16
2018-04-24T04:43:37.566Z,100301.41
2018-04-24T04:46:04.952Z,100302.44
2018-04-24T04:48:32.355Z,100301.60
2018-04-24T04:50:59.756Z,100310.63
2018-04-24T04:53:27.775Z,100303.64
2018-04-24T04:55:55.158Z,100303.55
2018-04-24T04:58:22.899Z,100308.66
2018-04-24T05:00:50.312Z,100312.12
2018-04-24T05:03:17.719Z,100319.30
2018-04-24T05:05:45.121Z,100313.66
2018-04-24T05:08:12.517Z,100321.13
2018-04-24T05:10:39.899Z,100321.05
2018-04-24T05:13:07.287Z,100333.94
2018-04-24T05:15:34.690Z,100336.58
2018-04-24T05:18:02.075Z,100349.78
2018-04-24T05:20:29.478Z,100351.23
2018-04-24T05:22:56.858Z,100357.88
2018-04-24T05:25:24.243Z,100366.09
2018-04-24T05:27:51.671Z,100363.16
2018-04-24T05:30:19.463Z,100368.59
2018-04-24T05:32:46.849Z,100378.03
2018-04-24T05:35:14.238Z,100372.68
2018-04-24T05:37:41.636Z,100364.36
2018-04-24T05:40:09.032Z,100360.11
2018-04-24T05:42:36.433Z,100368.06
2018-04-24T05:45:03.803Z,100369.97
2018-04-24T05:47:31.198Z,100370.50
2018-04-24T05:49:58.592Z,100377.38
2018-04-24T05:52:26.057Z,100375.42
2018-04-24T05:54:53.419Z,100375.27
2018-04-24T05:57:20.850Z,100371.41
2018-04-24T05:59:48.251Z,100377.81
2018-04-24T06:02:15.646Z,100375.66
2018-04-24T06:04:43.068Z,100384.84
2018-04-24T06:07:10.459Z,100379.77
2018-04-24T06:09:37.855Z,100385.02
2018-04-24T06:12:05.242Z,100380.75
2018-04-24T06:14:32.638Z,100383.59
2018-04-24T06:17:00.043Z,100369.98
2018-04-24T06:19:27.420Z,100374.91
2018-04-24T06:21:54.819Z,100382.56
2018-04-24T06:24:22.226Z,100375.74
2018-04-24T06:26:49.609Z,100376.83
2018-04-24T06:29:16.990Z,100375.78
2018-04-24T06:31:44.403Z,100377.20
2018-04-24T06:34:11.791Z,100382.17
2018-04-24T06:36:39.196Z,100380.06
2018-04-24T06:39:06.578Z,100381.09
2018-04-24T06:41:33.975Z,100379.99
2018-04-24T06:44:01.370Z,100372.93
2018-04-24T06:46:28.783Z,100375.41
2018-04-24T06:48:56.174Z,100376.45
2018-04-24T06:51:23.588Z,100381.76
2018-04-24T06:53:51.078Z,100376.98
2018-04-24T06:56:18.471Z,100363.38
2018-04-24T06:58:45.879Z,100367.73
2018-04-24T07:01:13.283Z,100372.22
2018-04-24T07:03:40.667Z,100372.51
2018-04-24T07:06:08.047Z,100373.41
2018-04-24T07:08:35.467Z,100373.98
2018-04-24T07:11:02.867Z,100378.56
2018-04-24T07:13:30.258Z,100374.05
2018-04-24T07:15:57.643Z,100375.21
2018-04-24T07:18:25.035Z,100380.19
2018-04-24T07:20:52.424Z,100372.37
2018-04-24T07:23:19.815Z,100375.72
2018-04-24T07:25:47.226Z,100373.95
2018-04-24T07:28:14.639Z,100377.48
2018-04-24T07:30:42.020Z,100372.37
2018-04-24T07:33:09.407Z,100370.50
2018-04-24T07:35:36.799Z,100373.17
2018-04-24T07:38:04.175Z,100371.86
2018-04-24T07:40:31.574Z,100369.69
2018-04-24T07:42:58.951Z,100368.11
2018-04-24T07:45:26.532Z,100361.38
2018-04-24T07:47:53.895Z,100362.82
2018-04-24T07:50:21.287Z,100369.78
2018-04-24T07:52:48.671Z,100374.94
2018-04-24T07:55:16.071Z,100375.41
2018-04-24T07:57:43.458Z,100376.34
2018-04-24T08:00:10.850Z,100375.27
2018-04-24T08:02:38.238Z,100380.61
2018-04-24T08:05:05.647Z,100382.70
2018-04-24T08:07:33.078Z,100382.83
2018-04-24T08:10:00.459Z,100382.03
2018-04-24T08:12:27.924Z,100379.47
2018-04-24T08:14:55.306Z,100374.81
2018-04-24T08:17:22.691Z,100382.24
2018-04-24T08:19:50.071Z,100376.82
2018-04-24T08:22:17.961Z,100380.24
2018-04-24T08:24:45.346Z,100381.76
2018-04-24T08:27:12.722Z,100382.16
2018-04-24T08:29:40.110Z,100387.83
2018-04-24T08:32:07.498Z,100389.64
2018-04-24T08:34:34.883Z,100385.76
2018-04-24T08:37:02.272Z,100385.10
2018-04-24T08:39:29.662Z,100373.11
2018-04-24T08:41:57.063Z,100380.05
2018-04-24T08:44:24.463Z,100382.71
2018-04-24T08:46:51.856Z,100379.30
2018-04-24T08:49:19.241Z,100375.73
2018-04-24T08:51:46.623Z,100385.45
2018-04-24T08:54:14.018Z,100387.83
2018-04-24T08:56:41.405Z,100390.38
2018-04-24T08:59:08.795Z,100391.38
2018-04-24T09:01:36.184Z,100393.77
2018-04-24T09:04:03.555Z,100405.05
2018-04-24T09:06:30.955Z,100405.60
2018-04-24T09:08:58.343Z,100404.45
2018-04-24T09:11:25.778Z,100399.79
2018-04-24T09:13:53.147Z,100404.38
2018-04-24T09:16:20.554Z,100410.84
2018-04-24T09:18:47.939Z,100414.02
2018-04-24T09:21:15.344Z,100420.20
2018-04-24T09:23:42.744Z,100405.70
2018-04-24T09:26:10.128Z,100407.09
2018-04-24T09:28:37.669Z,100412.12
2018-04-24T09:31:05.055Z,100410.83
2018-04-24T09:33:32.567Z,100411.46
2018-04-24T09:35:59.892Z,100406.47
2018-04-24T09:38:27.298Z,100407.23
2018-04-24T09:40:54.699Z,100410.55
2018-04-24T09:43:22.095Z,100417.66
2018-04-24T09:45:49.500Z,100424.50
2018-04-24T09:48:16.910Z,100425.03
2018-04-24T09:50:44.311Z,100416.04
2018-04-24T09:53:11.742Z,100421.30
2018-04-24T09:55:39.270Z,100420.53
2018-04-24T09:58:06.781Z,100410.17
2018-04-24T10:00:36.978Z,100404.66
2018-04-24T10:03:04.379Z,100404.92
2018-04-24T10:05:31.771Z,100388.71
2018-04-24T10:07:59.183Z,100391.63
2018-04-24T10:10:26.583Z,100399.20
2018-04-24T10:12:53.984Z,100401.50
2018-04-24T10:15:21.375Z,100409.44
2018-04-24T10:17:48.754Z,100405.88
2018-04-24T10:20:16.151Z,100413.22
2018-04-24T10:22:43.547Z,100406.73
2018-04-24T10:25:10.934Z,100410.93
2018-04-24T10:27:38.376Z,100404.06
2018-04-24T10:30:05.735Z,100399.51
2018-04-24T10:32:33.136Z,100397.17
2018-04-24T10:35:00.529Z,100399.48
2018-04-24T10:37:28.005Z,100395.56
2018-04-24T10:39:55.311Z,100404.10
2018-04-24T10:42:23.058Z,100403.73
2018-04-24T10:44:50.447Z,100394.11
2018-04-24T10:47:17.854Z,100389.58
2018-04-24T10:49:45.350Z,100385.72
2018-04-24T10:52:12.769Z,100383.34
2018-04-24T10:54:40.329Z,100372.44
2018-04-24T10:57:07.718Z,100364.67
2018-04-24T10:59:35.134Z,100357.53
2018-04-24T11:02:02.700Z,100360.25
2018-04-24T11:04:30.118Z,100358.83
2018-04-24T11:06:57.527Z,100360.84
2018-04-24T11:09:24.927Z,100358.57
2018-04-24T11:11:52.373Z,100347.80
2018-04-24T11:14:19.712Z,100346.30
2018-04-24T11:16:47.121Z,100349.56
2018-04-24T11:19:14.519Z,100348.74
2018-04-24T11:21:41.922Z,100342.97
2018-04-24T11:24:09.342Z,100343.84
2018-04-24T11:26:36.758Z,100336.31
2018-04-24T11:29:04.158Z,100328.94
2018-04-24T11:31:31.798Z,100327.04
2018-04-24T11:33:59.181Z,100326.61
2018-04-24T11:36:26.562Z,100329.50
2018-04-24T11:38:53.958Z,100324.86
2018-04-24T11:41:21.401Z,100325.10
2018-04-24T11:43:48.873Z,100323.02
2018-04-24T11:46:16.171Z,100329.31
2018-04-24T11:48:43.558Z,100327.64
2018-04-24T11:51:10.955Z,100324.78
2018-04-24T11:53:38.380Z,100320.31
2018-04-24T11:56:05.799Z,100313.62
2018-04-24T11:58:33.191Z,100321.53
2018-04-24T12:01:00.590Z,100331.39
2018-04-24T12:03:27.979Z,100321.05
2018-04-24T12:05:55.375Z,100321.19
2018-04-24T12:08:22.759Z,100324.99
2018-04-24T12:10:50.147Z,100323.37
2018-04-24T12:13:17.539Z,100327.53
2018-04-24T12:15:44.975Z,100332.50
2018-04-24T12:18:12.315Z,100334.98
2018-04-24T12:20:39.711Z,100329.70
2018-04-24T12:23:07.099Z,100331.58
2018-04-24T12:25:34.495Z,100321.91
2018-04-24T12:28:01.887Z,100328.23
2018-04-24T12:30:29.277Z,100325.34
2018-04-24T12:32:56.771Z,100322.73
2018-04-24T12:35:24.178Z,100323.70
2018-04-24T12:37:51.566Z,100320.60
2018-04-24T12:40:18.955Z,100315.56
2018-04-24T12:42:46.355Z,100311.13
2018-04-24T12:45:13.750Z,100306.08
2018-04-24T12:47:41.151Z,100300.38
2018-04-24T12:50:08.594Z,100301.72
2018-04-24T12:52:36.007Z,100298.05
2018-04-24T12:55:03.412Z,100294.44
2018-04-24T12:57:30.795Z,100298.85
2018-04-24T12:59:58.191Z,100285.80
2018-04-24T13:02:25.579Z,100283.12
2018-04-24T13:04:52.996Z,100278.28
2018-04-24T13:07:20.392Z,100290.55
2018-04-24T13:09:47.835Z,100289.58
2018-04-24T13:12:15.202Z,100288.02
2018-04-24T13:14:42.599Z,100287.02
2018-04-24T13:17:09.997Z,100291.10
2018-04-24T13:19:37.404Z,100300.03
2018-04-24T13:22:04.815Z,100298.70
2018-04-24T13:24:32.230Z,100289.66
2018-04-24T13:26:59.611Z,100293.24
2018-04-24T13:29:27.020Z,100283.11
2018-04-24T13:31:54.437Z,100283.54
2018-04-24T13:34:21.834Z,100273.98
2018-04-24T13:36:49.245Z,100263.21
2018-04-24T13:39:16.646Z,100261.51
2018-04-24T13:41:44.023Z,100257.91
2018-04-24T13:44:11.417Z,100257.63
2018-04-24T13:46:38.803Z,100245.13
2018-04-24T13:49:06.210Z,100250.74
2018-04-24T13:51:33.603Z,100244.27
2018-04-24T13:54:00.999Z,100240.42
2018-04-24T13:56:28.419Z,100234.77
2018-04-24T13:58:55.919Z,100231.27
2018-04-24T14:01:23.351Z,100230.53
2018-04-24T14:03:50.735Z,100225.28
2018-04-24T14:06:18.149Z,100221.97
2018-04-24T14:08:45.514Z,100229.59
2018-04-24T14:11:12.915Z,100219.95
2018-04-24T14:13:40.307Z,100215.94
2018-04-24T14:16:07.755Z,100220.75
2018-04-24T14:18:35.198Z,100214.17
2018-04-24T14:21:02.599Z,100206.45
2018-04-24T14:23:29.987Z,100204.22
2018-04-24T14:25:57.855Z,100201.29
2018-04-24T14:28:25.242Z,100206.37
2018-04-24T14:30:52.663Z,100202.14
2018-04-24T14:33:20.082Z,100200.20
2018-04-24T14:35:47.471Z,100198.34
2018-04-24T14:38:14.867Z,100194.72
2018-04-24T14:40:42.246Z,100194.66
2018-04-24T14:43:09.723Z,100190.91
2018-04-24T14:45:37.123Z,100186.06
2018-04-24T14:48:04.534Z,100184.61
2018-04-24T14:50:31.963Z,100186.00
2018-04-24T14:52:59.364Z,100181.66
2018-04-24T14:55:26.747Z,100179.89
2018-04-24T14:57:54.131Z,100163.77
2018-04-24T15:00:21.522Z,100164.39
2018-04-24T15:02:48.910Z,100159.41
2018-04-24T15:05:16.298Z,100156.24
2018-04-24T15:07:43.687Z,100157.62
2018-04-24T15:10:11.149Z,100153.44
2018-04-24T15:12:38.530Z,100155.87
2018-04-24T15:15:05.941Z,100151.95
2018-04-24T15:17:33.319Z,100146.69
2018-04-24T15:20:00.710Z,100146.55
2018-04-24T15:22:28.103Z,100138.45
2018-04-24T15:24:55.510Z,100133.58
2018-04-24T15:27:22.895Z,100127.59
2018-04-24T15:29:50.317Z,100122.02
2018-04-24T15:32:17.748Z,100118.31
2018-04-24T15:34:45.145Z,100115.52
2018-04-24T15:37:12.579Z,100111.52
2018-04-24T15:39:39.968Z,100106.78
2018-04-24T15:42:07.370Z,100103.41
2018-04-24T15:44:34.858Z,100102.28
2018-04-24T15:47:02.247Z,100085.85
2018-04-24T15:49:29.646Z,100088.08
2018-04-24T15:51:57.031Z,100084.48
2018-04-24T15:54:24.427Z,100084.30
2018-04-24T15:56:51.811Z,100081.28
2018-04-24T15:59:19.199Z,100073.70
2018-04-24T16:01:46.589Z,100068.71
2018-04-24T16:04:13.979Z,100068.04
2018-04-24T16:06:41.380Z,100072.91
2018-04-24T16:09:08.766Z,100074.27
2018-04-24T16:11:36.171Z,100065.48
2018-04-24T16:14:03.552Z,100069.23
2018-04-24T16:16:30.943Z,100067.30
2018-04-24T16:18:58.334Z,100066.23
2018-04-24T16:21:25.723Z,100060.48
2018-04-24T16:23:53.111Z,100066.27
2018-04-24T16:26:20.503Z,100076.33
2018-04-24T16:28:47.890Z,100077.75
2018-04-24T16:31:15.297Z,100067.41
2018-04-24T16:33:42.679Z,100072.27
2018-04-24T16:36:10.067Z,100061.00
2018-04-24T16:38:37.463Z,100067.89
2018-04-24T16:41:04.861Z,100064.83
2018-04-24T16:43:32.247Z,100067.55
2018-04-24T16:45:59.635Z,100066.20
2018-04-24T16:48:27.179Z,100066.06
2018-04-24T16:50:54.572Z,100061.23
2018-04-24T16:53:21.968Z,100054.73
2018-04-24T16:55:49.354Z,100048.28
2018-04-24T16:58:16.792Z,100045.55
2018-04-24T17:00:44.234Z,100042.28
2018-04-24T17:03:11.567Z,100039.32
2018-04-24T17:05:39.049Z,100034.09
2018-04-24T17:08:06.436Z,100020.45
2018-04-24T17:10:33.827Z,100018.00
2018-04-24T17:13:01.218Z,100018.81
2018-04-24T17:15:28.610Z,100020.55
2018-04-24T17:17:56.004Z,100019.87
2018-04-24T17:20:23.399Z,100020.23
2018-04-24T17:22:50.794Z,100022.52
2018-04-24T17:25:18.189Z,100020.91
2018-04-24T17:27:45.575Z,100013.87
2018-04-24T17:30:12.963Z,100018.17
2018-04-24T17:32:40.369Z,100013.17
2018-04-24T17:35:07.763Z,100013.52
2018-04-24T17:37:35.159Z,100014.03
2018-04-24T17:40:02.560Z,100013.75
2018-04-24T17:42:30.018Z,100009.31
2018-04-24T17:44:57.432Z,100003.24
2018-04-24T17:47:24.824Z,100002.44
2018-04-24T17:49:52.529Z,100005.66
2018-04-24T17:52:19.911Z,100002.02
2018-04-24T17:54:47.294Z,99995.97
2018-04-24T17:57:14.858Z,99991.90
2018-04-24T17:59:42.235Z,99984.07
2018-04-24T18:02:09.673Z,99986.06
2018-04-24T18:04:37.071Z,99983.33
2018-04-24T18:07:04.475Z,99973.16
2018-04-24T18:09:31.855Z,99977.68
2018-04-24T18:11:59.894Z,99980.33
2018-04-24T18:14:27.291Z,99975.17
2018-04-24T18:16:54.891Z,99972.95
2018-04-24T18:19:22.278Z,99971.14
2018-04-24T18:21:49.666Z,99974.47
2018-04-24T18:24:17.067Z,99976.86
2018-04-24T18:26:44.455Z,99973.83
2018-04-24T18:29:11.834Z,99968.96
2018-04-24T18:31:39.259Z,99964.78
2018-04-24T18:34:06.652Z,99965.69
2018-04-24T18:36:34.040Z,99970.14
2018-04-24T18:39:01.419Z,99962.97
2018-04-24T18:41:28.810Z,99963.55
2018-04-24T18:43:56.202Z,99962.86
2018-04-24T18:46:23.579Z,99961.70
2018-04-24T18:48:50.979Z,99956.81
2018-04-24T18:51:18.371Z,99955.71
2018-04-24T18:53:46.127Z,99955.80
2018-04-24T18:56:13.522Z,99958.97
2018-04-24T18:58:40.923Z,99962.00
2018-04-24T19:01:08.335Z,99968.53
2018-04-24T19:03:35.718Z,99965.30
2018-04-24T19:06:03.132Z,99960.16
2018-04-24T19:08:30.511Z,99963.12
2018-04-24T19:10:57.890Z,99953.28
2018-04-24T19:13:25.291Z,99959.22
2018-04-24T19:15:52.670Z,99956.66
2018-04-24T19:21:19.568Z,99942.48
2018-04-24T19:23:47.034Z,99947.21
2018-04-24T19:26:14.342Z,99943.83
2018-04-24T19:28:41.754Z,99943.42
2018-04-24T19:34:14.202Z,99941.52
2018-04-24T19:36:41.598Z,99944.87
2018-04-24T19:39:14.515Z,99947.56
2018-04-24T19:41:46.831Z,99943.91
2018-04-24T19:44:14.211Z,99937.04
2018-04-24T19:46:41.614Z,99939.97
2018-04-24T19:49:14.645Z,99935.91
2018-04-24T19:51:41.970Z,99941.42
2018-04-24T19:54:09.351Z,99939.94
2018-04-24T19:56:36.747Z,99941.28
2018-04-24T19:59:04.131Z,99943.88
2018-04-24T20:01:31.514Z,99949.80
2018-04-24T20:06:32.796Z,99936.97
2018-04-24T20:09:00.184Z,99933.14
2018-04-24T20:11:27.627Z,99927.08
2018-04-24T20:13:55.012Z,99926.24
2018-04-24T20:16:22.387Z,99926.90
2018-04-24T20:18:49.766Z,99921.59
2018-04-24T20:21:17.161Z,99919.04
2018-04-24T20:23:44.541Z,99919.17
2018-04-24T20:26:11.927Z,99918.34
2018-04-24T20:28:39.320Z,99904.17
2018-04-24T20:31:06.714Z,99908.34
2018-04-24T20:33:34.099Z,99900.17
2018-04-24T20:36:01.480Z,99904.06
2018-04-24T20:38:28.875Z,99900.83
2018-04-24T20:40:56.259Z,99901.55
2018-04-24T20:43:23.648Z,99899.41
2018-04-24T20:45:51.031Z,99898.03
2018-04-24T20:48:18.426Z,99890.34
2018-04-24T20:50:45.821Z,99885.10
2018-04-24T20:53:13.239Z,99884.30
2018-04-24T20:55:40.600Z,99875.69
2018-04-24T20:58:07.980Z,99879.20
2018-04-24T21:00:35.372Z,99879.58
2018-04-24T21:03:02.755Z,99874.48
2018-04-24T21:05:30.167Z,99868.44
2018-04-24T21:07:57.550Z,99868.44
2018-04-24T21:10:24.931Z,99860.75
2018-04-24T21:12:52.323Z,99860.45
2018-04-24T21:15:19.707Z,99857.10
2018-04-24T21:17:47.100Z,99846.48
2018-04-24T21:20:14.478Z,99848.20
2018-04-24T21:22:41.879Z,99844.34
2018-04-24T21:25:09.258Z,99840.52
2018-04-24T21:27:36.646Z,99842.24
2018-04-24T21:30:04.078Z,99832.55
2018-04-24T21:32:31.463Z,99826.83
2018-04-24T21:34:58.854Z,99827.77
2018-04-24T21:37:26.239Z,99832.17
2018-04-24T21:39:53.631Z,99830.70
2018-04-24T21:42:21.023Z,99826.42
2018-04-24T21:44:48.446Z,99829.14
2018-04-24T21:47:15.819Z,99820.11
2018-04-24T21:49:43.206Z,99816.77
2018-04-24T21:52:10.615Z,99812.73
2018-04-24T21:54:37.994Z,99807.73
2018-04-24T21:57:05.377Z,99802.87
2018-04-24T21:59:32.768Z,99796.64
2018-04-24T22:02:00.151Z,99793.33
2018-04-24T22:04:27.542Z,99789.72
2018-04-24T22:06:54.937Z,99779.86
2018-04-24T22:09:22.343Z,99777.20
2018-04-24T22:11:49.756Z,99772.63
2018-04-24T22:14:17.150Z,99767.66
2018-04-24T22:16:44.526Z,99764.87
2018-04-24T22:19:11.936Z,99764.87
2018-04-24T22:21:39.378Z,99757.05
2018-04-24T22:24:06.770Z,99761.36
2018-04-24T22:26:34.142Z,99753.27
2018-04-24T22:29:01.533Z,99752.09
2018-04-24T22:31:28.936Z,99747.68
2018-04-24T22:33:56.388Z,99751.98
2018-04-24T22:36:23.780Z,99748.89
2018-04-24T22:38:51.176Z,99746.89
2018-04-24T22:41:18.579Z,99741.92
2018-04-24T22:43:46.001Z,99743.58
2018-04-24T22:46:13.375Z,99728.97
2018-04-24T22:48:40.802Z,99731.14
2018-04-24T22:51:08.175Z,99723.45
2018-04-24T22:53:35.595Z,99719.84
2018-04-24T22:56:03.016Z,99713.42
2018-04-24T22:58:30.392Z,99710.19
2018-04-24T23:00:57.809Z,99714.88
2018-04-24T23:03:25.208Z,99705.36
2018-04-24T23:05:52.646Z,99705.11
2018-04-24T23:08:20.048Z,99700.39
2018-04-24T23:10:59.108Z,99704.16
2018-04-24T23:13:38.293Z,99691.42
2018-04-24T23:16:17.378Z,99692.36
2018-04-24T23:18:56.518Z,99694.75
2018-04-24T23:21:23.399Z,99687.78
2018-04-24T23:23:50.767Z,99688.41
2018-04-24T23:26:18.304Z,99683.06
2018-04-24T23:28:45.691Z,99683.31
2018-04-24T23:31:13.107Z,99688.44
2018-04-24T23:33:40.500Z,99691.64
2018-04-24T23:36:07.879Z,99683.14
2018-04-24T23:38:35.310Z,99680.31
2018-04-24T23:41:02.700Z,99680.56
2018-04-24T23:43:30.159Z,99669.56
2018-04-24T23:45:57.538Z,99659.72
2018-04-24T23:48:24.923Z,99659.75
2018-04-24T23:50:52.308Z,99657.83
2018-04-24T23:53:19.700Z,99650.95
2018-04-24T23:55:47.091Z,99652.45
2018-04-24T23:58:14.483Z,99649.08
